sensor_id;sensor_type;location;lat;lon;timestamp;temperature;humidity
15554;DHT22;7878;44.632;10.942;2022-10-12T00:00:50;19.20;99.90
15554;DHT22;7878;44.632;10.942;2022-10-12T00:03:17;19.30;99.90
15554;DHT22;7878;44.632;10.942;2022-10-12T00:05:43;19.20;99.90
15554;DHT22;7878;44.632;10.942;2022-10-12T00:08:09;19.20;99.90
15554;DHT22;7878;44.632;10.942;2022-10-12T00:10:41;19.20;99.90
15554;DHT22;7878;44.632;10.942;2022-10-12T00:13:09;19.20;99.90
15554;DHT22;7878;44.632;10.942;2022-10-12T00:15:39;19.20;99.90
15554;DHT22;7878;44.632;10.942;2022-10-12T00:18:05;19.20;99.90
15554;DHT22;7878;44.632;10.942;2022-10-12T00:20:31;19.20;99.90
15554;DHT22;7878;44.632;10.942;2022-10-12T00:22:57;19.20;99.90
15554;DHT22;7878;44.632;10.942;2022-10-12T00:25:22;19.20;99.90
15554;DHT22;7878;44.632;10.942;2022-10-12T00:27:48;19.20;99.90
15554;DHT22;7878;44.632;10.942;2022-10-12T00:30:14;19.10;99.90
15554;DHT22;7878;44.632;10.942;2022-10-12T00:32:39;19.10;99.90
15554;DHT22;7878;44.632;10.942;2022-10-12T00:35:05;19.10;99.90
15554;DHT22;7878;44.632;10.942;2022-10-12T00:37:31;19.10;99.90
15554;DHT22;7878;44.632;10.942;2022-10-12T00:39:57;19.10;99.90
15554;DHT22;7878;44.632;10.942;2022-10-12T00:42:22;19.10;99.90
15554;DHT22;7878;44.632;10.942;2022-10-12T00:44:50;19.10;99.90
15554;DHT22;7878;44.632;10.942;2022-10-12T00:49:42;19.10;99.90
15554;DHT22;7878;44.632;10.942;2022-10-12T00:52:10;19.10;99.90
15554;DHT22;7878;44.632;10.942;2022-10-12T00:54:41;19.00;99.90
15554;DHT22;7878;44.632;10.942;2022-10-12T00:57:09;19.00;99.90
15554;DHT22;7878;44.632;10.942;2022-10-12T00:59:43;19.00;99.90
15554;DHT22;7878;44.632;10.942;2022-10-12T01:02:11;19.00;99.90
15554;DHT22;7878;44.632;10.942;2022-10-12T01:04:38;19.00;99.90
15554;DHT22;7878;44.632;10.942;2022-10-12T01:07:04;18.90;99.90
15554;DHT22;7878;44.632;10.942;2022-10-12T01:09:30;19.00;99.90
15554;DHT22;7878;44.632;10.942;2022-10-12T01:11:56;18.90;99.90
15554;DHT22;7878;44.632;10.942;2022-10-12T01:14:23;18.90;99.90
15554;DHT22;7878;44.632;10.942;2022-10-12T01:22:20;18.90;99.90
15554;DHT22;7878;44.632;10.942;2022-10-12T01:24:55;18.90;99.90
15554;DHT22;7878;44.632;10.942;2022-10-12T01:30:21;18.90;99.90
15554;DHT22;7878;44.632;10.942;2022-10-12T01:38:38;18.80;99.90
15554;DHT22;7878;44.632;10.942;2022-10-12T01:42:13;18.80;99.90
15554;DHT22;7878;44.632;10.942;2022-10-12T01:44:07;18.80;99.90
15554;DHT22;7878;44.632;10.942;2022-10-12T01:48:59;18.80;99.90
15554;DHT22;7878;44.632;10.942;2022-10-12T01:57:16;18.70;99.90
15554;DHT22;7878;44.632;10.942;2022-10-12T02:10:26;18.60;99.90
15554;DHT22;7878;44.632;10.942;2022-10-12T02:12:55;18.60;99.90
15554;DHT22;7878;44.632;10.942;2022-10-12T02:15:24;18.60;99.90
15554;DHT22;7878;44.632;10.942;2022-10-12T02:17:52;18.60;99.90
15554;DHT22;7878;44.632;10.942;2022-10-12T02:20:22;18.60;99.90
15554;DHT22;7878;44.632;10.942;2022-10-12T02:22:49;18.60;99.90
15554;DHT22;7878;44.632;10.942;2022-10-12T02:25:19;18.50;99.90
15554;DHT22;7878;44.632;10.942;2022-10-12T02:27:51;18.50;99.90
15554;DHT22;7878;44.632;10.942;2022-10-12T02:30:18;18.60;99.90
15554;DHT22;7878;44.632;10.942;2022-10-12T02:33:06;18.50;99.90
15554;DHT22;7878;44.632;10.942;2022-10-12T02:35:42;18.50;99.90
15554;DHT22;7878;44.632;10.942;2022-10-12T02:38:34;18.50;99.90
15554;DHT22;7878;44.632;10.942;2022-10-12T02:41:05;18.50;99.90
15554;DHT22;7878;44.632;10.942;2022-10-12T02:43:51;18.40;99.90
15554;DHT22;7878;44.632;10.942;2022-10-12T02:46:19;18.40;99.90
15554;DHT22;7878;44.632;10.942;2022-10-12T02:48:48;18.40;99.90
15554;DHT22;7878;44.632;10.942;2022-10-12T02:51:15;18.40;99.90
15554;DHT22;7878;44.632;10.942;2022-10-12T02:53:41;18.40;99.90
15554;DHT22;7878;44.632;10.942;2022-10-12T02:56:11;18.40;99.90
15554;DHT22;7878;44.632;10.942;2022-10-12T02:58:37;18.40;99.90
15554;DHT22;7878;44.632;10.942;2022-10-12T03:01:03;18.40;99.90
15554;DHT22;7878;44.632;10.942;2022-10-12T03:03:29;18.40;99.90
15554;DHT22;7878;44.632;10.942;2022-10-12T03:05:55;18.40;99.90
15554;DHT22;7878;44.632;10.942;2022-10-12T03:08:20;18.30;99.90
15554;DHT22;7878;44.632;10.942;2022-10-12T03:10:46;18.30;99.90
15554;DHT22;7878;44.632;10.942;2022-10-12T03:13:12;18.30;99.90
15554;DHT22;7878;44.632;10.942;2022-10-12T03:15:38;18.30;99.90
15554;DHT22;7878;44.632;10.942;2022-10-12T03:18:03;18.30;99.90
15554;DHT22;7878;44.632;10.942;2022-10-12T03:20:29;18.30;99.90
15554;DHT22;7878;44.632;10.942;2022-10-12T03:22:55;18.30;99.90
15554;DHT22;7878;44.632;10.942;2022-10-12T03:25:21;18.30;99.90
15554;DHT22;7878;44.632;10.942;2022-10-12T03:27:47;18.30;99.90
15554;DHT22;7878;44.632;10.942;2022-10-12T03:30:13;18.20;99.90
15554;DHT22;7878;44.632;10.942;2022-10-12T03:32:39;18.20;99.90
15554;DHT22;7878;44.632;10.942;2022-10-12T03:35:05;18.20;99.90
15554;DHT22;7878;44.632;10.942;2022-10-12T03:37:31;18.20;99.90
15554;DHT22;7878;44.632;10.942;2022-10-12T03:39:57;18.20;99.90
15554;DHT22;7878;44.632;10.942;2022-10-12T03:42:22;18.20;99.90
15554;DHT22;7878;44.632;10.942;2022-10-12T03:44:48;18.20;99.90
15554;DHT22;7878;44.632;10.942;2022-10-12T03:47:14;18.20;99.90
15554;DHT22;7878;44.632;10.942;2022-10-12T03:49:40;18.20;99.90
15554;DHT22;7878;44.632;10.942;2022-10-12T03:52:06;18.20;99.90
15554;DHT22;7878;44.632;10.942;2022-10-12T03:54:32;18.20;99.90
15554;DHT22;7878;44.632;10.942;2022-10-12T03:56:57;18.10;99.90
15554;DHT22;7878;44.632;10.942;2022-10-12T03:59:23;18.10;99.90
15554;DHT22;7878;44.632;10.942;2022-10-12T04:01:49;18.10;99.90
15554;DHT22;7878;44.632;10.942;2022-10-12T04:04:14;18.10;99.90
15554;DHT22;7878;44.632;10.942;2022-10-12T04:06:40;18.10;99.90
15554;DHT22;7878;44.632;10.942;2022-10-12T04:09:06;18.10;99.90
15554;DHT22;7878;44.632;10.942;2022-10-12T04:11:31;18.00;99.90
15554;DHT22;7878;44.632;10.942;2022-10-12T04:13:57;18.10;99.90
15554;DHT22;7878;44.632;10.942;2022-10-12T04:16:23;18.00;99.90
15554;DHT22;7878;44.632;10.942;2022-10-12T04:18:48;18.10;99.90
15554;DHT22;7878;44.632;10.942;2022-10-12T04:21:15;18.10;99.90
15554;DHT22;7878;44.632;10.942;2022-10-12T04:23:42;18.10;99.90
15554;DHT22;7878;44.632;10.942;2022-10-12T04:26:08;18.00;99.90
15554;DHT22;7878;44.632;10.942;2022-10-12T04:28:34;18.00;99.90
15554;DHT22;7878;44.632;10.942;2022-10-12T04:31:00;18.00;99.90
15554;DHT22;7878;44.632;10.942;2022-10-12T04:33:26;18.00;99.90
15554;DHT22;7878;44.632;10.942;2022-10-12T04:35:51;18.00;99.90
15554;DHT22;7878;44.632;10.942;2022-10-12T04:38:17;18.00;99.90
15554;DHT22;7878;44.632;10.942;2022-10-12T04:40:47;18.00;99.90
15554;DHT22;7878;44.632;10.942;2022-10-12T04:43:13;17.90;99.90
15554;DHT22;7878;44.632;10.942;2022-10-12T04:45:39;17.90;99.90
15554;DHT22;7878;44.632;10.942;2022-10-12T04:48:05;17.90;99.90
15554;DHT22;7878;44.632;10.942;2022-10-12T04:50:31;17.90;99.90
15554;DHT22;7878;44.632;10.942;2022-10-12T04:52:56;17.90;99.90
15554;DHT22;7878;44.632;10.942;2022-10-12T04:55:22;17.90;99.90
15554;DHT22;7878;44.632;10.942;2022-10-12T04:57:48;17.90;99.90
15554;DHT22;7878;44.632;10.942;2022-10-12T05:00:14;17.90;99.90
15554;DHT22;7878;44.632;10.942;2022-10-12T05:02:40;18.00;99.90
15554;DHT22;7878;44.632;10.942;2022-10-12T05:05:06;18.10;99.90
15554;DHT22;7878;44.632;10.942;2022-10-12T05:07:32;18.10;99.90
15554;DHT22;7878;44.632;10.942;2022-10-12T05:09:58;18.10;99.90
15554;DHT22;7878;44.632;10.942;2022-10-12T05:12:23;18.10;99.90
15554;DHT22;7878;44.632;10.942;2022-10-12T05:14:49;18.20;99.90
15554;DHT22;7878;44.632;10.942;2022-10-12T05:17:15;18.20;99.90
15554;DHT22;7878;44.632;10.942;2022-10-12T05:19:40;18.20;99.90
15554;DHT22;7878;44.632;10.942;2022-10-12T05:22:06;18.10;99.90
15554;DHT22;7878;44.632;10.942;2022-10-12T05:24:32;18.10;99.90
15554;DHT22;7878;44.632;10.942;2022-10-12T05:26:57;18.10;99.90
15554;DHT22;7878;44.632;10.942;2022-10-12T05:29:23;18.10;99.90
15554;DHT22;7878;44.632;10.942;2022-10-12T05:31:49;18.10;99.90
15554;DHT22;7878;44.632;10.942;2022-10-12T05:34:15;18.10;99.90
15554;DHT22;7878;44.632;10.942;2022-10-12T05:36:40;18.10;99.90
15554;DHT22;7878;44.632;10.942;2022-10-12T05:39:06;18.10;99.90
15554;DHT22;7878;44.632;10.942;2022-10-12T05:41:31;18.10;99.90
15554;DHT22;7878;44.632;10.942;2022-10-12T05:43:57;18.10;99.90
15554;DHT22;7878;44.632;10.942;2022-10-12T05:46:23;18.10;99.90
15554;DHT22;7878;44.632;10.942;2022-10-12T05:48:49;18.10;99.90
15554;DHT22;7878;44.632;10.942;2022-10-12T05:51:14;18.10;99.90
15554;DHT22;7878;44.632;10.942;2022-10-12T05:53:40;18.10;99.90
15554;DHT22;7878;44.632;10.942;2022-10-12T05:56:06;18.10;99.90
15554;DHT22;7878;44.632;10.942;2022-10-12T05:58:31;18.10;99.90
15554;DHT22;7878;44.632;10.942;2022-10-12T06:01:11;18.10;99.90
15554;DHT22;7878;44.632;10.942;2022-10-12T06:03:38;18.10;99.90
15554;DHT22;7878;44.632;10.942;2022-10-12T06:06:04;18.10;99.90
15554;DHT22;7878;44.632;10.942;2022-10-12T06:08:32;18.10;99.90
15554;DHT22;7878;44.632;10.942;2022-10-12T06:10:57;18.00;99.90
15554;DHT22;7878;44.632;10.942;2022-10-12T06:13:23;18.00;99.90
15554;DHT22;7878;44.632;10.942;2022-10-12T06:15:50;18.00;99.90
15554;DHT22;7878;44.632;10.942;2022-10-12T06:18:16;18.10;99.90
15554;DHT22;7878;44.632;10.942;2022-10-12T06:20:50;18.10;99.90
15554;DHT22;7878;44.632;10.942;2022-10-12T06:23:17;18.10;99.90
15554;DHT22;7878;44.632;10.942;2022-10-12T06:25:48;18.20;99.90
15554;DHT22;7878;44.632;10.942;2022-10-12T06:28:15;18.20;99.90
15554;DHT22;7878;44.632;10.942;2022-10-12T06:30:41;18.20;99.90
15554;DHT22;7878;44.632;10.942;2022-10-12T06:33:08;18.30;99.90
15554;DHT22;7878;44.632;10.942;2022-10-12T06:35:33;18.30;99.90
15554;DHT22;7878;44.632;10.942;2022-10-12T06:37:59;18.30;99.90
15554;DHT22;7878;44.632;10.942;2022-10-12T06:40:25;18.30;99.90
15554;DHT22;7878;44.632;10.942;2022-10-12T06:42:51;18.30;99.90
15554;DHT22;7878;44.632;10.942;2022-10-12T06:45:17;18.40;99.90
15554;DHT22;7878;44.632;10.942;2022-10-12T06:47:43;18.40;99.90
15554;DHT22;7878;44.632;10.942;2022-10-12T06:50:09;18.30;99.90
15554;DHT22;7878;44.632;10.942;2022-10-12T06:52:35;18.40;99.90
15554;DHT22;7878;44.632;10.942;2022-10-12T06:55:01;18.40;99.90
15554;DHT22;7878;44.632;10.942;2022-10-12T06:57:27;18.50;99.90
15554;DHT22;7878;44.632;10.942;2022-10-12T06:59:52;18.50;99.90
15554;DHT22;7878;44.632;10.942;2022-10-12T07:02:18;18.60;99.90
15554;DHT22;7878;44.632;10.942;2022-10-12T07:04:49;18.60;99.90
15554;DHT22;7878;44.632;10.942;2022-10-12T07:07:15;18.60;99.90
15554;DHT22;7878;44.632;10.942;2022-10-12T07:09:41;18.70;99.90
15554;DHT22;7878;44.632;10.942;2022-10-12T07:12:07;18.70;99.90
15554;DHT22;7878;44.632;10.942;2022-10-12T07:14:32;18.70;99.90
15554;DHT22;7878;44.632;10.942;2022-10-12T07:16:58;18.80;99.90
15554;DHT22;7878;44.632;10.942;2022-10-12T07:19:23;18.90;99.90
15554;DHT22;7878;44.632;10.942;2022-10-12T07:21:49;18.90;99.90
15554;DHT22;7878;44.632;10.942;2022-10-12T07:24:15;19.00;99.90
15554;DHT22;7878;44.632;10.942;2022-10-12T07:26:40;19.10;99.90
15554;DHT22;7878;44.632;10.942;2022-10-12T07:29:06;19.20;99.90
15554;DHT22;7878;44.632;10.942;2022-10-12T07:31:32;19.20;99.90
15554;DHT22;7878;44.632;10.942;2022-10-12T07:33:57;19.30;99.90
15554;DHT22;7878;44.632;10.942;2022-10-12T07:36:23;19.30;99.90
15554;DHT22;7878;44.632;10.942;2022-10-12T07:38:49;19.40;99.90
15554;DHT22;7878;44.632;10.942;2022-10-12T07:41:15;19.40;99.90
15554;DHT22;7878;44.632;10.942;2022-10-12T07:43:41;19.40;99.90
15554;DHT22;7878;44.632;10.942;2022-10-12T07:46:07;19.40;99.90
15554;DHT22;7878;44.632;10.942;2022-10-12T07:48:33;19.40;99.90
15554;DHT22;7878;44.632;10.942;2022-10-12T07:51:06;19.50;99.90
15554;DHT22;7878;44.632;10.942;2022-10-12T07:53:33;19.50;99.90
15554;DHT22;7878;44.632;10.942;2022-10-12T07:56:04;19.40;99.90
15554;DHT22;7878;44.632;10.942;2022-10-12T07:58:31;19.40;99.90
15554;DHT22;7878;44.632;10.942;2022-10-12T08:01:07;19.40;99.90
15554;DHT22;7878;44.632;10.942;2022-10-12T08:03:33;19.50;99.90
15554;DHT22;7878;44.632;10.942;2022-10-12T08:05:59;19.70;99.90
15554;DHT22;7878;44.632;10.942;2022-10-12T08:08:24;19.80;99.90
15554;DHT22;7878;44.632;10.942;2022-10-12T08:10:50;19.80;99.90
15554;DHT22;7878;44.632;10.942;2022-10-12T08:13:16;19.90;99.90
15554;DHT22;7878;44.632;10.942;2022-10-12T08:15:50;19.90;99.90
15554;DHT22;7878;44.632;10.942;2022-10-12T08:18:16;20.00;99.90
15554;DHT22;7878;44.632;10.942;2022-10-12T08:20:41;20.10;99.90
15554;DHT22;7878;44.632;10.942;2022-10-12T08:23:07;20.20;99.90
15554;DHT22;7878;44.632;10.942;2022-10-12T08:25:33;20.30;99.90
15554;DHT22;7878;44.632;10.942;2022-10-12T08:27:59;20.30;99.90
15554;DHT22;7878;44.632;10.942;2022-10-12T08:30:25;20.40;99.90
15554;DHT22;7878;44.632;10.942;2022-10-12T08:32:52;20.40;99.90
15554;DHT22;7878;44.632;10.942;2022-10-12T08:35:18;20.50;99.90
15554;DHT22;7878;44.632;10.942;2022-10-12T08:37:44;20.60;99.90
15554;DHT22;7878;44.632;10.942;2022-10-12T08:40:17;20.60;99.90
15554;DHT22;7878;44.632;10.942;2022-10-12T08:45:55;20.70;99.90
15554;DHT22;7878;44.632;10.942;2022-10-12T08:48:46;20.70;99.90
15554;DHT22;7878;44.632;10.942;2022-10-12T08:51:13;20.80;99.90
15554;DHT22;7878;44.632;10.942;2022-10-12T08:56:24;20.90;99.90
15554;DHT22;7878;44.632;10.942;2022-10-12T08:58:51;21.00;99.90
15554;DHT22;7878;44.632;10.942;2022-10-12T09:06:54;21.20;99.90
15554;DHT22;7878;44.632;10.942;2022-10-12T09:14:41;21.40;99.90
15554;DHT22;7878;44.632;10.942;2022-10-12T09:17:27;21.50;99.90
15554;DHT22;7878;44.632;10.942;2022-10-12T09:20:05;21.60;99.90
15554;DHT22;7878;44.632;10.942;2022-10-12T09:22:33;21.60;99.90
15554;DHT22;7878;44.632;10.942;2022-10-12T09:24:59;21.60;99.90
15554;DHT22;7878;44.632;10.942;2022-10-12T09:27:30;21.70;99.90
15554;DHT22;7878;44.632;10.942;2022-10-12T09:30:02;21.70;99.90
15554;DHT22;7878;44.632;10.942;2022-10-12T09:33:08;21.80;99.90
15554;DHT22;7878;44.632;10.942;2022-10-12T09:35:23;21.90;99.90
15554;DHT22;7878;44.632;10.942;2022-10-12T09:37:51;22.10;99.90
15554;DHT22;7878;44.632;10.942;2022-10-12T09:40:24;22.20;99.90
15554;DHT22;7878;44.632;10.942;2022-10-12T09:42:51;22.20;99.90
15554;DHT22;7878;44.632;10.942;2022-10-12T09:45:20;22.20;99.90
15554;DHT22;7878;44.632;10.942;2022-10-12T09:50:46;22.20;99.90
15554;DHT22;7878;44.632;10.942;2022-10-12T09:53:19;22.30;99.90
15554;DHT22;7878;44.632;10.942;2022-10-12T09:58:23;22.60;99.90
15554;DHT22;7878;44.632;10.942;2022-10-12T10:01:09;22.70;99.90
15554;DHT22;7878;44.632;10.942;2022-10-12T10:03:35;22.70;99.90
15554;DHT22;7878;44.632;10.942;2022-10-12T10:06:03;22.70;99.90
15554;DHT22;7878;44.632;10.942;2022-10-12T10:08:38;22.80;99.90
15554;DHT22;7878;44.632;10.942;2022-10-12T10:11:05;22.90;99.90
15554;DHT22;7878;44.632;10.942;2022-10-12T10:13:37;23.00;99.90
15554;DHT22;7878;44.632;10.942;2022-10-12T10:16:10;23.10;99.90
15554;DHT22;7878;44.632;10.942;2022-10-12T10:18:48;23.20;99.90
15554;DHT22;7878;44.632;10.942;2022-10-12T10:21:24;23.40;99.90
15554;DHT22;7878;44.632;10.942;2022-10-12T10:23:58;23.60;99.90
15554;DHT22;7878;44.632;10.942;2022-10-12T10:26:26;23.70;99.90
15554;DHT22;7878;44.632;10.942;2022-10-12T10:31:46;24.00;99.90
15554;DHT22;7878;44.632;10.942;2022-10-12T10:34:19;24.20;99.90
15554;DHT22;7878;44.632;10.942;2022-10-12T10:36:53;24.30;99.90
15554;DHT22;7878;44.632;10.942;2022-10-12T10:39:29;24.50;99.90
15554;DHT22;7878;44.632;10.942;2022-10-12T10:42:11;24.50;99.90
15554;DHT22;7878;44.632;10.942;2022-10-12T10:44:37;24.60;99.90
15554;DHT22;7878;44.632;10.942;2022-10-12T10:47:11;24.50;99.90
15554;DHT22;7878;44.632;10.942;2022-10-12T10:49:49;24.60;99.90
15554;DHT22;7878;44.632;10.942;2022-10-12T10:52:29;24.80;99.90
15554;DHT22;7878;44.632;10.942;2022-10-12T10:55:18;25.30;99.90
15554;DHT22;7878;44.632;10.942;2022-10-12T10:58:05;25.80;99.90
15554;DHT22;7878;44.632;10.942;2022-10-12T11:00:35;26.40;99.90
15554;DHT22;7878;44.632;10.942;2022-10-12T11:03:18;26.90;99.90
15554;DHT22;7878;44.632;10.942;2022-10-12T11:05:59;27.50;99.90
15554;DHT22;7878;44.632;10.942;2022-10-12T11:08:31;28.30;99.90
15554;DHT22;7878;44.632;10.942;2022-10-12T11:11:03;29.30;99.90
15554;DHT22;7878;44.632;10.942;2022-10-12T11:13:55;30.70;99.90
15554;DHT22;7878;44.632;10.942;2022-10-12T11:16:49;32.50;95.70
15554;DHT22;7878;44.632;10.942;2022-10-12T11:21:55;36.70;90.90
15554;DHT22;7878;44.632;10.942;2022-10-12T11:24:31;38.10;91.10
15554;DHT22;7878;44.632;10.942;2022-10-12T11:27:02;39.30;83.80
15554;DHT22;7878;44.632;10.942;2022-10-12T11:29:28;40.30;85.90
15554;DHT22;7878;44.632;10.942;2022-10-12T11:34:46;40.90;70.60
15554;DHT22;7878;44.632;10.942;2022-10-12T11:37:18;41.20;73.90
15554;DHT22;7878;44.632;10.942;2022-10-12T11:39:48;40.80;74.70
15554;DHT22;7878;44.632;10.942;2022-10-12T11:42:38;40.50;76.20
15554;DHT22;7878;44.632;10.942;2022-10-12T11:45:21;40.20;74.10
15554;DHT22;7878;44.632;10.942;2022-10-12T11:47:51;38.70;71.30
15554;DHT22;7878;44.632;10.942;2022-10-12T11:52:56;37.70;73.20
15554;DHT22;7878;44.632;10.942;2022-10-12T11:57:55;39.40;74.80
15554;DHT22;7878;44.632;10.942;2022-10-12T12:00:26;40.20;77.10
15554;DHT22;7878;44.632;10.942;2022-10-12T12:03:19;40.90;75.60
15554;DHT22;7878;44.632;10.942;2022-10-12T12:05:47;41.50;65.00
15554;DHT22;7878;44.632;10.942;2022-10-12T12:11:23;41.70;62.40
15554;DHT22;7878;44.632;10.942;2022-10-12T12:13:49;41.60;63.60
15554;DHT22;7878;44.632;10.942;2022-10-12T12:19:10;40.00;71.50
15554;DHT22;7878;44.632;10.942;2022-10-12T12:35:35;30.80;79.60
15554;DHT22;7878;44.632;10.942;2022-10-12T12:38:26;30.20;81.50
15554;DHT22;7878;44.632;10.942;2022-10-12T12:40:56;29.80;77.40
15554;DHT22;7878;44.632;10.942;2022-10-12T12:45:58;29.10;82.20
15554;DHT22;7878;44.632;10.942;2022-10-12T12:51:16;28.40;80.30
15554;DHT22;7878;44.632;10.942;2022-10-12T12:53:54;28.20;84.40
15554;DHT22;7878;44.632;10.942;2022-10-12T13:13:53;27.10;82.60
15554;DHT22;7878;44.632;10.942;2022-10-12T13:19:11;26.90;86.50
15554;DHT22;7878;44.632;10.942;2022-10-12T13:21:45;26.70;87.00
15554;DHT22;7878;44.632;10.942;2022-10-12T13:24:35;26.60;87.20
15554;DHT22;7878;44.632;10.942;2022-10-12T13:27:23;26.50;83.80
15554;DHT22;7878;44.632;10.942;2022-10-12T13:30:03;26.50;83.40
15554;DHT22;7878;44.632;10.942;2022-10-12T13:36:06;26.30;85.30
15554;DHT22;7878;44.632;10.942;2022-10-12T13:38:34;26.30;85.70
15554;DHT22;7878;44.632;10.942;2022-10-12T13:41:14;26.20;88.40
15554;DHT22;7878;44.632;10.942;2022-10-12T13:43:50;26.20;86.10
15554;DHT22;7878;44.632;10.942;2022-10-12T13:49:17;26.10;85.50
15554;DHT22;7878;44.632;10.942;2022-10-12T13:54:21;25.90;89.00
15554;DHT22;7878;44.632;10.942;2022-10-12T13:56:48;25.90;89.40
15554;DHT22;7878;44.632;10.942;2022-10-12T13:59:20;25.90;88.90
15554;DHT22;7878;44.632;10.942;2022-10-12T14:04:16;25.80;88.90
15554;DHT22;7878;44.632;10.942;2022-10-12T14:06:46;25.80;89.60
15554;DHT22;7878;44.632;10.942;2022-10-12T14:09:18;25.70;89.00
15554;DHT22;7878;44.632;10.942;2022-10-12T14:11:45;25.70;88.60
15554;DHT22;7878;44.632;10.942;2022-10-12T14:14:32;25.60;89.50
15554;DHT22;7878;44.632;10.942;2022-10-12T14:16:59;25.60;86.80
15554;DHT22;7878;44.632;10.942;2022-10-12T14:22:04;25.40;88.70
15554;DHT22;7878;44.632;10.942;2022-10-12T14:24:30;25.40;90.10
15554;DHT22;7878;44.632;10.942;2022-10-12T14:27:01;25.30;89.90
15554;DHT22;7878;44.632;10.942;2022-10-12T14:29:42;25.40;90.10
15554;DHT22;7878;44.632;10.942;2022-10-12T14:39:34;25.30;90.00
15554;DHT22;7878;44.632;10.942;2022-10-12T14:42:26;25.30;90.20
15554;DHT22;7878;44.632;10.942;2022-10-12T14:44:52;25.30;90.10
15554;DHT22;7878;44.632;10.942;2022-10-12T14:47:24;25.30;90.30
15554;DHT22;7878;44.632;10.942;2022-10-12T14:49:52;25.20;90.10
15554;DHT22;7878;44.632;10.942;2022-10-12T14:52:22;25.20;90.50
15554;DHT22;7878;44.632;10.942;2022-10-12T14:54:55;25.10;90.40
15554;DHT22;7878;44.632;10.942;2022-10-12T14:57:22;25.10;90.40
15554;DHT22;7878;44.632;10.942;2022-10-12T14:59:49;25.10;90.70
15554;DHT22;7878;44.632;10.942;2022-10-12T15:02:21;25.00;90.80
15554;DHT22;7878;44.632;10.942;2022-10-12T15:04:48;25.00;90.90
15554;DHT22;7878;44.632;10.942;2022-10-12T15:07:20;25.00;91.10
15554;DHT22;7878;44.632;10.942;2022-10-12T15:09:46;24.90;91.20
15554;DHT22;7878;44.632;10.942;2022-10-12T15:12:15;24.90;91.10
15554;DHT22;7878;44.632;10.942;2022-10-12T15:14:42;24.80;91.10
15554;DHT22;7878;44.632;10.942;2022-10-12T15:17:12;24.80;90.80
15554;DHT22;7878;44.632;10.942;2022-10-12T15:19:40;24.70;90.70
15554;DHT22;7878;44.632;10.942;2022-10-12T15:22:07;24.70;91.00
15554;DHT22;7878;44.632;10.942;2022-10-12T15:24:34;24.60;90.90
15554;DHT22;7878;44.632;10.942;2022-10-12T15:27:00;24.60;91.20
15554;DHT22;7878;44.632;10.942;2022-10-12T15:29:26;24.60;91.30
15554;DHT22;7878;44.632;10.942;2022-10-12T15:31:51;24.60;91.40
15554;DHT22;7878;44.632;10.942;2022-10-12T15:34:17;24.50;91.50
15554;DHT22;7878;44.632;10.942;2022-10-12T15:36:43;24.50;91.50
15554;DHT22;7878;44.632;10.942;2022-10-12T15:39:09;24.50;91.60
15554;DHT22;7878;44.632;10.942;2022-10-12T15:41:35;24.50;91.70
15554;DHT22;7878;44.632;10.942;2022-10-12T15:44:00;24.40;91.60
15554;DHT22;7878;44.632;10.942;2022-10-12T15:46:26;24.30;91.60
15554;DHT22;7878;44.632;10.942;2022-10-12T15:48:52;24.40;91.90
15554;DHT22;7878;44.632;10.942;2022-10-12T15:51:20;24.30;92.00
15554;DHT22;7878;44.632;10.942;2022-10-12T15:53:48;24.30;91.90
15554;DHT22;7878;44.632;10.942;2022-10-12T15:56:15;24.20;91.80
15554;DHT22;7878;44.632;10.942;2022-10-12T15:58:40;24.20;91.90
15554;DHT22;7878;44.632;10.942;2022-10-12T16:01:09;24.20;92.00
15554;DHT22;7878;44.632;10.942;2022-10-12T16:03:35;24.20;91.90
15554;DHT22;7878;44.632;10.942;2022-10-12T16:06:01;24.20;92.10
15554;DHT22;7878;44.632;10.942;2022-10-12T16:08:27;24.10;92.10
15554;DHT22;7878;44.632;10.942;2022-10-12T16:10:52;24.10;92.20
15554;DHT22;7878;44.632;10.942;2022-10-12T16:13:18;24.10;92.20
15554;DHT22;7878;44.632;10.942;2022-10-12T16:15:44;24.10;92.30
15554;DHT22;7878;44.632;10.942;2022-10-12T16:18:10;24.00;92.40
15554;DHT22;7878;44.632;10.942;2022-10-12T16:20:37;24.00;92.50
15554;DHT22;7878;44.632;10.942;2022-10-12T16:23:06;24.00;92.60
15554;DHT22;7878;44.632;10.942;2022-10-12T16:25:34;24.00;92.70
15554;DHT22;7878;44.632;10.942;2022-10-12T16:28:00;24.00;92.80
15554;DHT22;7878;44.632;10.942;2022-10-12T16:30:26;23.90;92.90
15554;DHT22;7878;44.632;10.942;2022-10-12T16:32:52;23.80;93.00
15554;DHT22;7878;44.632;10.942;2022-10-12T16:35:17;23.80;93.10
15554;DHT22;7878;44.632;10.942;2022-10-12T16:37:43;23.80;93.20
15554;DHT22;7878;44.632;10.942;2022-10-12T16:40:10;23.80;93.30
15554;DHT22;7878;44.632;10.942;2022-10-12T16:42:36;23.80;93.30
15554;DHT22;7878;44.632;10.942;2022-10-12T16:45:02;23.70;93.30
15554;DHT22;7878;44.632;10.942;2022-10-12T16:47:29;23.70;93.30
15554;DHT22;7878;44.632;10.942;2022-10-12T16:49:55;23.70;93.50
15554;DHT22;7878;44.632;10.942;2022-10-12T16:52:21;23.70;93.60
15554;DHT22;7878;44.632;10.942;2022-10-12T16:54:51;23.60;93.60
15554;DHT22;7878;44.632;10.942;2022-10-12T16:57:17;23.60;93.70
15554;DHT22;7878;44.632;10.942;2022-10-12T16:59:43;23.50;93.70
15554;DHT22;7878;44.632;10.942;2022-10-12T17:02:10;23.50;93.80
15554;DHT22;7878;44.632;10.942;2022-10-12T17:04:35;23.50;93.90
15554;DHT22;7878;44.632;10.942;2022-10-12T17:07:01;23.40;93.90
15554;DHT22;7878;44.632;10.942;2022-10-12T17:09:27;23.40;94.00
15554;DHT22;7878;44.632;10.942;2022-10-12T17:11:53;23.40;94.00
15554;DHT22;7878;44.632;10.942;2022-10-12T17:14:19;23.40;94.10
15554;DHT22;7878;44.632;10.942;2022-10-12T17:16:44;23.40;94.20
15554;DHT22;7878;44.632;10.942;2022-10-12T17:19:33;23.30;94.30
15554;DHT22;7878;44.632;10.942;2022-10-12T17:22:00;23.30;94.50
15554;DHT22;7878;44.632;10.942;2022-10-12T17:24:30;23.30;94.50
15554;DHT22;7878;44.632;10.942;2022-10-12T17:26:56;23.30;94.60
15554;DHT22;7878;44.632;10.942;2022-10-12T17:29:24;23.20;94.70
15554;DHT22;7878;44.632;10.942;2022-10-12T17:31:51;23.20;94.80
15554;DHT22;7878;44.632;10.942;2022-10-12T17:34:21;23.20;95.00
15554;DHT22;7878;44.632;10.942;2022-10-12T17:36:47;23.10;95.10
15554;DHT22;7878;44.632;10.942;2022-10-12T17:39:14;23.10;95.10
15554;DHT22;7878;44.632;10.942;2022-10-12T17:41:40;23.10;95.20
15554;DHT22;7878;44.632;10.942;2022-10-12T17:44:05;23.10;95.30
15554;DHT22;7878;44.632;10.942;2022-10-12T17:46:31;23.10;95.40
15554;DHT22;7878;44.632;10.942;2022-10-12T17:48:57;23.10;95.50
15554;DHT22;7878;44.632;10.942;2022-10-12T17:51:24;23.00;95.40
15554;DHT22;7878;44.632;10.942;2022-10-12T17:53:50;23.00;95.50
15554;DHT22;7878;44.632;10.942;2022-10-12T17:56:15;23.00;95.60
15554;DHT22;7878;44.632;10.942;2022-10-12T17:58:41;23.00;95.70